createdAt,value
2022-11-07T00:02:19.559Z,12.30
2022-11-07T00:07:23.067Z,13.77
2022-11-07T00:12:28.462Z,14.60
2022-11-07T00:17:32.373Z,12.38
2022-11-07T00:22:35.878Z,11.77
2022-11-07T00:27:41.089Z,12.55
2022-11-07T00:32:44.709Z,12.48
2022-11-07T00:37:48.509Z,11.57
2022-11-07T00:42:53.392Z,11.07
2022-11-07T00:47:57.038Z,10.75
2022-11-07T00:53:00.670Z,11.68
2022-11-07T00:58:11.184Z,10.60
2022-11-07T01:03:34.968Z,11.15
2022-11-07T01:08:38.960Z,11.20
2022-11-07T01:13:43.926Z,11.60
2022-11-07T01:18:47.652Z,9.45
2022-11-07T01:23:51.431Z,10.30
2022-11-07T01:28:56.468Z,8.85
2022-11-07T01:34:00.261Z,10.18
2022-11-07T01:39:05.440Z,9.85
2022-11-07T01:45:04.826Z,10.15
2022-11-07T01:50:10.352Z,11.57
2022-11-07T01:55:19.228Z,8.48
2022-11-07T02:00:26.067Z,9.60
2022-11-07T02:05:35.909Z,9.50
2022-11-07T02:10:41.341Z,10.27
2022-11-07T02:15:46.477Z,8.75
2022-11-07T02:20:50.643Z,7.22
2022-11-07T02:25:55.900Z,8.98
2022-11-07T02:30:59.503Z,7.40
2022-11-07T02:36:03.289Z,7.05
2022-11-07T02:41:14.540Z,6.68
2022-11-07T02:46:18.936Z,8.20
2022-11-07T02:51:22.853Z,7.55
2022-11-07T02:56:28.006Z,8.63
2022-11-07T03:01:31.787Z,7.38
2022-11-07T03:06:35.575Z,7.20
2022-11-07T03:11:40.716Z,6.07
2022-11-07T03:16:44.369Z,8.60
2022-11-07T03:21:47.912Z,7.25
2022-11-07T03:26:53.059Z,6.38
2022-11-07T03:31:57.704Z,7.13
2022-11-07T03:37:01.315Z,4.57
2022-11-07T03:42:07.043Z,6.93
2022-11-07T03:47:10.865Z,7.00
2022-11-07T03:52:14.776Z,5.47
2022-11-07T03:57:19.925Z,5.93
2022-11-07T04:02:24.291Z,4.88
2022-11-07T04:07:28.030Z,5.45
2022-11-07T04:12:50.894Z,5.30
2022-11-07T04:17:54.582Z,7.25
2022-11-07T04:22:58.350Z,5.53
2022-11-07T04:28:03.250Z,6.28
2022-11-07T04:33:06.856Z,6.28
2022-11-07T04:38:10.551Z,4.63
2022-11-07T04:43:16.023Z,6.15
2022-11-07T04:48:20.367Z,6.53
2022-11-07T04:53:24.064Z,6.38
2022-11-07T04:58:29.256Z,4.63
2022-11-07T05:03:36.215Z,5.15
2022-11-07T05:08:42.762Z,4.50
2022-11-07T05:13:47.709Z,4.28
2022-11-07T05:18:51.319Z,5.20
2022-11-07T05:23:55.049Z,5.47
2022-11-07T05:29:00.083Z,5.22
2022-11-07T05:34:03.700Z,4.22
2022-11-07T05:39:07.316Z,5.70
2022-11-07T05:44:13.494Z,5.03
2022-11-07T05:49:17.183Z,6.07
2022-11-07T05:54:20.939Z,6.07
2022-11-07T05:59:26.477Z,4.47
2022-11-07T06:04:30.017Z,4.30
2022-11-07T06:09:33.591Z,5.38
2022-11-07T06:14:38.459Z,4.95
2022-11-07T06:19:42.110Z,3.78
2022-11-07T06:24:45.709Z,3.55
2022-11-07T06:29:50.722Z,4.60
2022-11-07T06:34:54.349Z,4.05
2022-11-07T06:39:57.887Z,3.92
2022-11-07T06:45:02.847Z,4.10
2022-11-07T06:50:08.537Z,5.03
2022-11-07T06:55:12.133Z,5.40
2022-11-07T07:00:18.960Z,4.80
2022-11-07T07:05:22.984Z,5.70
2022-11-07T07:10:26.632Z,4.47
2022-11-07T07:15:47.541Z,9.63
2022-11-07T07:20:57.281Z,7.03
2022-11-07T07:26:01.051Z,6.20
2022-11-07T07:31:28.786Z,5.25
2022-11-07T07:36:33.218Z,6.50
2022-11-07T07:41:40.168Z,5.07
2022-11-07T07:46:45.458Z,8.30
2022-11-07T07:51:49.642Z,5.75
2022-11-07T07:56:53.237Z,6.65
2022-11-07T08:01:58.503Z,9.15
2022-11-07T08:07:02.121Z,6.63
2022-11-07T08:12:08.773Z,5.55
2022-11-07T08:17:13.832Z,5.93
2022-11-07T08:22:17.406Z,6.15
2022-11-07T08:27:21.288Z,5.85
2022-11-07T08:32:29.350Z,7.00
2022-11-07T08:37:33.014Z,4.57
2022-11-07T08:42:36.556Z,3.85
2022-11-07T08:47:41.524Z,5.68
2022-11-07T08:52:45.260Z,3.53
2022-11-07T08:57:48.846Z,6.35
2022-11-07T09:08:17.431Z,3.97
2022-11-07T09:13:21.720Z,4.88
2022-11-07T09:18:27.245Z,4.90
2022-11-07T09:23:30.780Z,3.90
2022-11-07T09:28:35.371Z,7.93
2022-11-07T09:33:40.434Z,6.97
2022-11-07T09:38:44.056Z,6.85
2022-11-07T10:26:05.812Z,14.10
2022-11-07T10:31:12.789Z,16.40
2022-11-07T10:36:26.089Z,13.70
2022-11-07T10:41:34.450Z,11.35
2022-11-07T10:46:46.694Z,16.60
2022-11-07T10:51:53.671Z,14.70
2022-11-07T10:57:07.364Z,8.60
2022-11-07T11:02:23.018Z,12.18
2022-11-07T11:07:35.291Z,13.32
2022-11-07T11:12:47.983Z,9.48
2022-11-07T11:18:03.061Z,9.98
2022-11-07T11:23:18.522Z,10.15
2022-11-07T11:28:31.440Z,9.70
2022-11-07T11:33:43.917Z,7.88
2022-11-07T11:38:54.882Z,8.88
2022-11-07T11:44:08.349Z,8.75
2022-11-07T11:49:21.016Z,8.85
2022-11-07T11:54:24.775Z,8.57
2022-11-07T12:00:15.099Z,7.55
2022-11-07T12:06:05.487Z,7.97
2022-11-07T12:11:22.787Z,9.80
2022-11-07T12:16:37.422Z,7.90
2022-11-07T12:21:55.230Z,7.45
2022-11-07T12:27:11.878Z,7.88
2022-11-07T12:32:28.250Z,5.85
2022-11-07T12:38:04.564Z,6.32
2022-11-07T12:43:28.628Z,6.07
2022-11-07T12:49:06.118Z,6.07
2022-11-07T12:59:51.822Z,6.82
2022-11-07T13:05:01.750Z,7.40
2022-11-07T13:10:12.742Z,7.43
2022-11-07T13:15:17.732Z,5.10
2022-11-07T13:20:32.156Z,6.65
2022-11-07T13:25:36.347Z,5.40
2022-11-07T13:30:41.098Z,4.70
2022-11-07T13:35:58.743Z,5.35
2022-11-07T13:46:12.917Z,5.80
2022-11-07T13:56:36.511Z,5.97
2022-11-07T14:01:45.810Z,5.00
2022-11-07T14:06:52.123Z,5.00
2022-11-07T14:11:56.757Z,4.45
2022-11-07T14:17:01.147Z,4.15
2022-11-07T14:22:09.770Z,5.85
2022-11-07T14:27:16.270Z,4.20
2022-11-07T14:32:20.703Z,4.32
2022-11-07T14:37:27.771Z,3.72
2022-11-07T14:42:31.496Z,4.40
2022-11-07T14:47:36.608Z,4.70
2022-11-07T14:52:46.118Z,4.63
2022-11-07T14:57:50.966Z,3.08
2022-11-07T15:02:58.586Z,5.40
2022-11-07T15:08:03.973Z,2.97
2022-11-07T15:13:26.481Z,3.13
2022-11-07T15:18:30.772Z,3.72
2022-11-07T15:23:37.128Z,3.25
2022-11-07T15:28:50.353Z,3.40
2022-11-07T15:33:55.433Z,4.70
2022-11-07T15:39:00.908Z,3.75
2022-11-07T15:44:04.725Z,4.13
2022-11-07T15:49:11.512Z,3.60
2022-11-07T15:54:16.737Z,2.83
2022-11-07T15:59:24.530Z,2.60
2022-11-07T16:09:35.176Z,2.72
2022-11-07T16:14:44.120Z,3.50
2022-11-07T16:19:48.534Z,2.38
2022-11-07T16:24:53.538Z,3.10
2022-11-07T16:29:57.204Z,2.03
2022-11-07T16:35:01.138Z,2.58
2022-11-07T16:40:09.488Z,3.05
2022-11-07T16:45:17.115Z,2.40
2022-11-07T16:50:21.266Z,3.45
2022-11-07T16:55:26.689Z,1.73
2022-11-07T17:00:30.154Z,3.40
2022-11-07T17:05:33.832Z,3.00
2022-11-07T17:10:39.200Z,3.38
2022-11-07T17:15:43.556Z,2.17
2022-11-07T17:20:52.094Z,3.42
2022-11-07T17:25:59.771Z,2.97
2022-11-07T17:31:03.521Z,2.05
2022-11-07T17:36:10.695Z,2.30
2022-11-07T17:41:18.837Z,2.30
2022-11-07T17:46:26.625Z,1.98
2022-11-07T17:56:35.952Z,2.53
2022-11-07T18:01:40.819Z,2.13
2022-11-07T18:06:45.083Z,2.30
2022-11-07T18:11:50.574Z,2.85
2022-11-07T18:16:54.142Z,3.03
2022-11-07T18:21:58.170Z,1.60
2022-11-07T18:27:07.870Z,2.40
2022-11-07T18:32:13.949Z,3.15
2022-11-07T18:37:18.309Z,2.35
2022-11-07T18:42:23.345Z,3.13
2022-11-07T18:47:28.689Z,3.08
2022-11-07T18:52:32.531Z,4.43
2022-11-07T18:57:37.562Z,3.03
2022-11-07T19:02:41.114Z,5.05
2022-11-07T19:07:45.014Z,2.67
2022-11-07T19:12:50.002Z,3.42
2022-11-07T19:17:53.753Z,3.35
2022-11-07T19:22:57.502Z,4.35
2022-11-07T19:28:02.386Z,3.35
2022-11-07T19:33:08.132Z,3.20
2022-11-07T19:38:15.010Z,2.97
2022-11-07T19:43:20.013Z,3.90
2022-11-07T19:48:23.934Z,2.28
2022-11-07T19:53:27.585Z,2.47
2022-11-07T19:58:32.599Z,2.88
2022-11-07T20:03:36.437Z,3.28
2022-11-07T20:08:41.079Z,3.33
2022-11-07T20:13:46.456Z,2.67
2022-11-07T20:18:50.426Z,4.05
2022-11-07T20:23:54.595Z,3.10
2022-11-07T20:29:00.621Z,5.38
2022-11-07T20:34:07.170Z,7.15
2022-11-07T20:39:13.972Z,6.35
2022-11-07T20:44:19.255Z,5.60
2022-11-07T20:49:23.351Z,6.40
2022-11-07T20:54:28.616Z,12.05
2022-11-07T20:59:33.775Z,8.38
2022-11-07T21:04:56.315Z,10.55
2022-11-07T21:10:01.510Z,5.50
2022-11-07T21:15:08.662Z,8.20
2022-11-07T21:20:13.304Z,5.63
2022-11-07T21:25:17.941Z,8.35
2022-11-07T21:30:23.091Z,6.10
2022-11-07T21:35:32.417Z,5.60
2022-11-07T21:40:38.679Z,4.80
2022-11-07T21:45:43.678Z,3.88
2022-11-07T21:50:47.257Z,6.97
2022-11-07T21:55:51.215Z,4.82
2022-11-07T22:00:56.363Z,4.45
2022-11-07T22:06:00.094Z,5.07
2022-11-07T22:11:04.157Z,5.82
2022-11-07T22:16:13.814Z,5.53
2022-11-07T22:21:20.809Z,4.85
2022-11-07T22:26:27.745Z,5.67
2022-11-07T22:31:33.469Z,6.50
2022-11-07T22:36:37.109Z,6.68
2022-11-07T22:41:40.949Z,6.82
2022-11-07T22:46:45.967Z,3.92
2022-11-07T22:51:50.127Z,5.60
2022-11-07T22:56:54.006Z,3.45
2022-11-07T23:01:59.115Z,5.88
2022-11-07T23:07:03.167Z,3.40
2022-11-07T23:12:07.629Z,4.03
2022-11-07T23:17:12.610Z,8.13
2022-11-07T23:22:16.181Z,6.18
2022-11-07T23:27:21.039Z,8.07
2022-11-07T23:32:27.718Z,6.85
2022-11-07T23:37:31.352Z,5.00
2022-11-07T23:42:35.154Z,7.72
2022-11-07T23:47:57.773Z,7.30
2022-11-07T23:53:21.965Z,8.00
2022-11-07T23:58:42.819Z,4.80
